sensor_id;sensor_type;location;lat;lon;timestamp;P1;durP1;ratioP1;P2;durP2;ratioP2
59239;SDS011;45010;53.640;10.578;2022-08-04T00:01:23;4.82;;;2.08;;
59239;SDS011;45010;53.640;10.578;2022-08-04T00:04:31;6.90;;;2.05;;
59239;SDS011;45010;53.640;10.578;2022-08-04T00:11:20;5.75;;;2.15;;
59239;SDS011;45010;53.640;10.578;2022-08-04T00:14:22;5.03;;;1.98;;
59239;SDS011;45010;53.640;10.578;2022-08-04T00:17:25;8.75;;;2.45;;
59239;SDS011;45010;53.640;10.578;2022-08-04T00:20:32;5.75;;;1.90;;
59239;SDS011;45010;53.640;10.578;2022-08-04T00:23:33;4.43;;;1.60;;
59239;SDS011;45010;53.640;10.578;2022-08-04T00:26:35;6.20;;;2.10;;
59239;SDS011;45010;53.640;10.578;2022-08-04T00:29:37;7.00;;;2.30;;
59239;SDS011;45010;53.640;10.578;2022-08-04T00:32:39;4.20;;;1.90;;
59239;SDS011;45010;53.640;10.578;2022-08-04T00:35:40;8.05;;;2.22;;
59239;SDS011;45010;53.640;10.578;2022-08-04T00:38:41;5.75;;;1.75;;
59239;SDS011;45010;53.640;10.578;2022-08-04T00:41:50;5.65;;;2.20;;
59239;SDS011;45010;53.640;10.578;2022-08-04T00:48:40;8.10;;;2.60;;
59239;SDS011;45010;53.640;10.578;2022-08-04T00:51:46;6.70;;;2.05;;
59239;SDS011;45010;53.640;10.578;2022-08-04T01:01:59;9.43;;;2.58;;
59239;SDS011;45010;53.640;10.578;2022-08-04T01:21:52;6.97;;;2.35;;
59239;SDS011;45010;53.640;10.578;2022-08-04T01:25:28;5.75;;;2.95;;
59239;SDS011;45010;53.640;10.578;2022-08-04T01:28:56;6.25;;;2.45;;
59239;SDS011;45010;53.640;10.578;2022-08-04T01:32:18;5.28;;;2.95;;
59239;SDS011;45010;53.640;10.578;2022-08-04T01:35:22;8.15;;;3.00;;
59239;SDS011;45010;53.640;10.578;2022-08-04T01:38:36;7.07;;;2.72;;
59239;SDS011;45010;53.640;10.578;2022-08-04T01:41:39;6.63;;;2.85;;
59239;SDS011;45010;53.640;10.578;2022-08-04T01:44:40;5.03;;;2.60;;
59239;SDS011;45010;53.640;10.578;2022-08-04T01:47:41;7.82;;;2.47;;
59239;SDS011;45010;53.640;10.578;2022-08-04T01:50:47;3.58;;;2.38;;
59239;SDS011;45010;53.640;10.578;2022-08-04T01:53:51;9.15;;;2.38;;
59239;SDS011;45010;53.640;10.578;2022-08-04T01:56:52;7.70;;;2.25;;
59239;SDS011;45010;53.640;10.578;2022-08-04T01:59:53;11.75;;;2.70;;
59239;SDS011;45010;53.640;10.578;2022-08-04T02:02:57;8.45;;;2.58;;
59239;SDS011;45010;53.640;10.578;2022-08-04T02:06:10;8.45;;;2.38;;
59239;SDS011;45010;53.640;10.578;2022-08-04T02:09:16;5.00;;;2.33;;
59239;SDS011;45010;53.640;10.578;2022-08-04T02:15:57;4.93;;;2.65;;
59239;SDS011;45010;53.640;10.578;2022-08-04T02:22:21;5.03;;;3.10;;
59239;SDS011;45010;53.640;10.578;2022-08-04T02:25:24;4.43;;;2.40;;
59239;SDS011;45010;53.640;10.578;2022-08-04T02:28:32;5.43;;;2.65;;
59239;SDS011;45010;53.640;10.578;2022-08-04T02:31:56;4.05;;;2.65;;
59239;SDS011;45010;53.640;10.578;2022-08-04T02:35:02;7.07;;;2.20;;
59239;SDS011;45010;53.640;10.578;2022-08-04T02:38:20;5.47;;;2.70;;
59239;SDS011;45010;53.640;10.578;2022-08-04T02:41:24;5.07;;;2.30;;
59239;SDS011;45010;53.640;10.578;2022-08-04T02:44:26;6.45;;;2.80;;
59239;SDS011;45010;53.640;10.578;2022-08-04T02:47:27;5.30;;;2.50;;
59239;SDS011;45010;53.640;10.578;2022-08-04T02:50:30;4.20;;;2.28;;
59239;SDS011;45010;53.640;10.578;2022-08-04T02:53:33;6.85;;;2.47;;
59239;SDS011;45010;53.640;10.578;2022-08-04T02:56:37;2.70;;;1.90;;
59239;SDS011;45010;53.640;10.578;2022-08-04T03:16:44;4.40;;;2.40;;
59239;SDS011;45010;53.640;10.578;2022-08-04T03:24:02;6.72;;;2.95;;
59239;SDS011;45010;53.640;10.578;2022-08-04T03:31:06;5.60;;;2.40;;
59239;SDS011;45010;53.640;10.578;2022-08-04T03:49:02;4.20;;;1.98;;
59239;SDS011;45010;53.640;10.578;2022-08-04T04:01:59;2.70;;;1.63;;
59239;SDS011;45010;53.640;10.578;2022-08-04T04:16:04;3.55;;;2.20;;
59239;SDS011;45010;53.640;10.578;2022-08-04T04:26:22;3.55;;;1.77;;
59239;SDS011;45010;53.640;10.578;2022-08-04T04:29:45;3.80;;;1.88;;
59239;SDS011;45010;53.640;10.578;2022-08-04T04:33:05;3.65;;;2.10;;
59239;SDS011;45010;53.640;10.578;2022-08-04T04:36:29;5.40;;;2.15;;
59239;SDS011;45010;53.640;10.578;2022-08-04T04:39:39;5.57;;;2.15;;
59239;SDS011;45010;53.640;10.578;2022-08-04T04:46:02;4.43;;;2.33;;
59239;SDS011;45010;53.640;10.578;2022-08-04T04:52:29;3.60;;;1.80;;
59239;SDS011;45010;53.640;10.578;2022-08-04T04:55:35;2.88;;;1.60;;
59239;SDS011;45010;53.640;10.578;2022-08-04T04:58:42;3.80;;;1.90;;
59239;SDS011;45010;53.640;10.578;2022-08-04T05:14:52;7.30;;;2.20;;
59239;SDS011;45010;53.640;10.578;2022-08-04T05:17:56;6.00;;;2.20;;
59239;SDS011;45010;53.640;10.578;2022-08-04T05:21:07;7.38;;;3.22;;
59239;SDS011;45010;53.640;10.578;2022-08-04T05:24:11;5.82;;;2.88;;
59239;SDS011;45010;53.640;10.578;2022-08-04T05:27:21;10.15;;;3.50;;
59239;SDS011;45010;53.640;10.578;2022-08-04T05:30:27;7.07;;;3.28;;
59239;SDS011;45010;53.640;10.578;2022-08-04T05:33:33;10.27;;;3.30;;
59239;SDS011;45010;53.640;10.578;2022-08-04T05:36:45;6.57;;;3.55;;
59239;SDS011;45010;53.640;10.578;2022-08-04T05:39:55;8.05;;;3.40;;
59239;SDS011;45010;53.640;10.578;2022-08-04T05:42:58;8.15;;;3.42;;
59239;SDS011;45010;53.640;10.578;2022-08-04T05:46:00;5.75;;;3.40;;
59239;SDS011;45010;53.640;10.578;2022-08-04T05:49:01;9.60;;;3.58;;
59239;SDS011;45010;53.640;10.578;2022-08-04T05:52:03;4.85;;;3.63;;
59239;SDS011;45010;53.640;10.578;2022-08-04T05:55:05;8.02;;;3.92;;
59239;SDS011;45010;53.640;10.578;2022-08-04T05:58:07;6.90;;;3.17;;
59239;SDS011;45010;53.640;10.578;2022-08-04T06:01:09;7.18;;;3.17;;
59239;SDS011;45010;53.640;10.578;2022-08-04T06:04:10;5.75;;;3.40;;
59239;SDS011;45010;53.640;10.578;2022-08-04T06:07:12;6.95;;;3.15;;
59239;SDS011;45010;53.640;10.578;2022-08-04T06:10:13;6.78;;;3.17;;
59239;SDS011;45010;53.640;10.578;2022-08-04T06:13:15;6.13;;;2.75;;
59239;SDS011;45010;53.640;10.578;2022-08-04T06:16:18;4.95;;;2.30;;
59239;SDS011;45010;53.640;10.578;2022-08-04T06:19:21;6.63;;;2.42;;
59239;SDS011;45010;53.640;10.578;2022-08-04T06:22:26;4.25;;;2.28;;
59239;SDS011;45010;53.640;10.578;2022-08-04T06:25:30;6.50;;;2.40;;
59239;SDS011;45010;53.640;10.578;2022-08-04T06:28:32;6.50;;;2.70;;
59239;SDS011;45010;53.640;10.578;2022-08-04T06:31:33;5.90;;;2.70;;
59239;SDS011;45010;53.640;10.578;2022-08-04T06:34:45;6.68;;;2.40;;
59239;SDS011;45010;53.640;10.578;2022-08-04T06:37:47;6.07;;;2.53;;
59239;SDS011;45010;53.640;10.578;2022-08-04T06:40:47;7.05;;;2.60;;
59239;SDS011;45010;53.640;10.578;2022-08-04T06:43:48;6.25;;;2.67;;
59239;SDS011;45010;53.640;10.578;2022-08-04T06:46:50;5.63;;;2.42;;
59239;SDS011;45010;53.640;10.578;2022-08-04T06:49:52;7.30;;;2.63;;
59239;SDS011;45010;53.640;10.578;2022-08-04T06:52:54;8.93;;;3.08;;
59239;SDS011;45010;53.640;10.578;2022-08-04T06:55:55;5.30;;;2.45;;
59239;SDS011;45010;53.640;10.578;2022-08-04T06:58:58;4.88;;;2.50;;
59239;SDS011;45010;53.640;10.578;2022-08-04T07:02:00;4.32;;;2.25;;
59239;SDS011;45010;53.640;10.578;2022-08-04T07:05:00;6.90;;;2.40;;
59239;SDS011;45010;53.640;10.578;2022-08-04T07:08:01;6.10;;;2.33;;
59239;SDS011;45010;53.640;10.578;2022-08-04T07:11:02;5.43;;;2.58;;
59239;SDS011;45010;53.640;10.578;2022-08-04T07:14:04;4.32;;;2.40;;
59239;SDS011;45010;53.640;10.578;2022-08-04T07:17:07;4.65;;;2.47;;
59239;SDS011;45010;53.640;10.578;2022-08-04T07:20:08;5.55;;;2.33;;
59239;SDS011;45010;53.640;10.578;2022-08-04T07:23:09;3.95;;;2.10;;
59239;SDS011;45010;53.640;10.578;2022-08-04T07:26:11;3.83;;;2.13;;
59239;SDS011;45010;53.640;10.578;2022-08-04T07:29:14;7.38;;;2.10;;
59239;SDS011;45010;53.640;10.578;2022-08-04T07:32:15;7.00;;;2.15;;
59239;SDS011;45010;53.640;10.578;2022-08-04T07:35:18;5.45;;;2.10;;
59239;SDS011;45010;53.640;10.578;2022-08-04T07:38:20;4.43;;;2.17;;
59239;SDS011;45010;53.640;10.578;2022-08-04T07:41:21;5.00;;;2.20;;
59239;SDS011;45010;53.640;10.578;2022-08-04T07:44:25;5.20;;;2.17;;
59239;SDS011;45010;53.640;10.578;2022-08-04T07:47:25;3.72;;;1.80;;
59239;SDS011;45010;53.640;10.578;2022-08-04T07:50:26;4.32;;;2.63;;
59239;SDS011;45010;53.640;10.578;2022-08-04T07:53:27;4.43;;;2.40;;
59239;SDS011;45010;53.640;10.578;2022-08-04T07:56:28;4.43;;;1.88;;
59239;SDS011;45010;53.640;10.578;2022-08-04T07:59:29;2.70;;;1.70;;
59239;SDS011;45010;53.640;10.578;2022-08-04T08:02:31;5.45;;;1.90;;
59239;SDS011;45010;53.640;10.578;2022-08-04T08:05:33;5.22;;;2.33;;
59239;SDS011;45010;53.640;10.578;2022-08-04T08:08:37;4.82;;;2.13;;
59239;SDS011;45010;53.640;10.578;2022-08-04T08:11:39;4.38;;;1.85;;
59239;SDS011;45010;53.640;10.578;2022-08-04T08:14:43;4.82;;;2.22;;
59239;SDS011;45010;53.640;10.578;2022-08-04T08:17:44;3.28;;;1.80;;
59239;SDS011;45010;53.640;10.578;2022-08-04T08:20:45;5.70;;;1.70;;
59239;SDS011;45010;53.640;10.578;2022-08-04T08:23:46;7.03;;;2.47;;
59239;SDS011;45010;53.640;10.578;2022-08-04T08:26:47;4.70;;;1.98;;
59239;SDS011;45010;53.640;10.578;2022-08-04T08:29:48;6.13;;;2.22;;
59239;SDS011;45010;53.640;10.578;2022-08-04T08:32:48;7.28;;;1.92;;
59239;SDS011;45010;53.640;10.578;2022-08-04T08:35:51;8.70;;;2.30;;
59239;SDS011;45010;53.640;10.578;2022-08-04T08:39:05;5.90;;;2.20;;
59239;SDS011;45010;53.640;10.578;2022-08-04T08:49:01;4.35;;;1.95;;
59239;SDS011;45010;53.640;10.578;2022-08-04T09:02:53;3.95;;;1.73;;
59239;SDS011;45010;53.640;10.578;2022-08-04T09:06:43;5.47;;;1.83;;
59239;SDS011;45010;53.640;10.578;2022-08-04T09:16:30;5.03;;;1.90;;
59239;SDS011;45010;53.640;10.578;2022-08-04T09:19:43;6.82;;;1.98;;
59239;SDS011;45010;53.640;10.578;2022-08-04T09:26:03;5.70;;;2.10;;
59239;SDS011;45010;53.640;10.578;2022-08-04T09:36:23;7.47;;;2.25;;
59239;SDS011;45010;53.640;10.578;2022-08-04T09:46:14;5.78;;;2.00;;
59239;SDS011;45010;53.640;10.578;2022-08-04T09:49:26;6.35;;;2.03;;
59239;SDS011;45010;53.640;10.578;2022-08-04T09:55:59;6.63;;;2.33;;
59239;SDS011;45010;53.640;10.578;2022-08-04T10:02:30;3.03;;;2.10;;
59239;SDS011;45010;53.640;10.578;2022-08-04T10:19:19;3.08;;;1.77;;
59239;SDS011;45010;53.640;10.578;2022-08-04T10:22:39;3.33;;;2.20;;
59239;SDS011;45010;53.640;10.578;2022-08-04T10:25:56;3.20;;;2.03;;
59239;SDS011;45010;53.640;10.578;2022-08-04T10:29:06;5.30;;;1.80;;
59239;SDS011;45010;53.640;10.578;2022-08-04T10:32:22;2.65;;;1.75;;
59239;SDS011;45010;53.640;10.578;2022-08-04T10:35:28;5.32;;;2.25;;
59239;SDS011;45010;53.640;10.578;2022-08-04T10:38:41;3.08;;;1.88;;
59239;SDS011;45010;53.640;10.578;2022-08-04T10:41:59;4.72;;;1.83;;
59239;SDS011;45010;53.640;10.578;2022-08-04T10:45:18;2.72;;;1.90;;
59239;SDS011;45010;53.640;10.578;2022-08-04T10:51:52;2.67;;;1.90;;
59239;SDS011;45010;53.640;10.578;2022-08-04T10:55:06;1.95;;;1.75;;
59239;SDS011;45010;53.640;10.578;2022-08-04T10:58:15;3.83;;;2.20;;
59239;SDS011;45010;53.640;10.578;2022-08-04T11:01:24;3.03;;;1.80;;
59239;SDS011;45010;53.640;10.578;2022-08-04T11:04:39;3.30;;;1.88;;
59239;SDS011;45010;53.640;10.578;2022-08-04T11:07:44;3.97;;;2.10;;
59239;SDS011;45010;53.640;10.578;2022-08-04T11:10:59;3.03;;;1.90;;
59239;SDS011;45010;53.640;10.578;2022-08-04T11:17:05;3.65;;;2.00;;
59239;SDS011;45010;53.640;10.578;2022-08-04T11:31:04;4.53;;;1.92;;
59239;SDS011;45010;53.640;10.578;2022-08-04T11:34:20;7.28;;;2.33;;
59239;SDS011;45010;53.640;10.578;2022-08-04T11:37:22;4.32;;;2.20;;
59239;SDS011;45010;53.640;10.578;2022-08-04T11:40:40;3.30;;;2.08;;
59239;SDS011;45010;53.640;10.578;2022-08-04T11:47:01;2.65;;;1.90;;
59239;SDS011;45010;53.640;10.578;2022-08-04T11:53:34;4.82;;;2.22;;
59239;SDS011;45010;53.640;10.578;2022-08-04T11:56:37;3.63;;;1.98;;
59239;SDS011;45010;53.640;10.578;2022-08-04T11:59:38;3.08;;;1.80;;
59239;SDS011;45010;53.640;10.578;2022-08-04T12:02:46;3.28;;;1.60;;
59239;SDS011;45010;53.640;10.578;2022-08-04T12:06:05;3.10;;;1.80;;
59239;SDS011;45010;53.640;10.578;2022-08-04T12:09:10;2.75;;;1.73;;
59239;SDS011;45010;53.640;10.578;2022-08-04T12:12:28;6.47;;;2.33;;
59239;SDS011;45010;53.640;10.578;2022-08-04T12:15:44;3.00;;;1.67;;
59239;SDS011;45010;53.640;10.578;2022-08-04T12:18:52;5.03;;;2.00;;
59239;SDS011;45010;53.640;10.578;2022-08-04T12:21:57;2.58;;;1.90;;
59239;SDS011;45010;53.640;10.578;2022-08-04T12:28:11;2.22;;;1.70;;
59239;SDS011;45010;53.640;10.578;2022-08-04T12:31:19;3.20;;;1.92;;
59239;SDS011;45010;53.640;10.578;2022-08-04T12:34:37;4.13;;;1.90;;
59239;SDS011;45010;53.640;10.578;2022-08-04T12:40:56;3.88;;;1.90;;
59239;SDS011;45010;53.640;10.578;2022-08-04T12:44:03;4.47;;;1.90;;
59239;SDS011;45010;53.640;10.578;2022-08-04T12:47:07;3.63;;;2.10;;
59239;SDS011;45010;53.640;10.578;2022-08-04T12:50:08;2.83;;;2.00;;
59239;SDS011;45010;53.640;10.578;2022-08-04T12:53:12;4.80;;;1.92;;
59239;SDS011;45010;53.640;10.578;2022-08-04T12:56:15;4.28;;;1.92;;
59239;SDS011;45010;53.640;10.578;2022-08-04T12:59:23;3.63;;;2.05;;
59239;SDS011;45010;53.640;10.578;2022-08-04T13:02:26;2.70;;;2.08;;
59239;SDS011;45010;53.640;10.578;2022-08-04T13:05:32;2.78;;;1.60;;
59239;SDS011;45010;53.640;10.578;2022-08-04T13:08:35;2.88;;;2.03;;
59239;SDS011;45010;53.640;10.578;2022-08-04T13:11:42;4.18;;;2.08;;
59239;SDS011;45010;53.640;10.578;2022-08-04T13:14:50;2.50;;;2.13;;
59239;SDS011;45010;53.640;10.578;2022-08-04T13:18:02;4.10;;;2.33;;
59239;SDS011;45010;53.640;10.578;2022-08-04T13:21:23;3.58;;;1.73;;
59239;SDS011;45010;53.640;10.578;2022-08-04T13:24:25;3.40;;;1.85;;
59239;SDS011;45010;53.640;10.578;2022-08-04T13:27:27;3.20;;;1.88;;
59239;SDS011;45010;53.640;10.578;2022-08-04T13:30:29;4.72;;;1.63;;
59239;SDS011;45010;53.640;10.578;2022-08-04T13:33:33;3.40;;;1.88;;
59239;SDS011;45010;53.640;10.578;2022-08-04T13:36:36;3.63;;;1.88;;
59239;SDS011;45010;53.640;10.578;2022-08-04T13:39:37;3.28;;;1.90;;
59239;SDS011;45010;53.640;10.578;2022-08-04T13:42:45;3.60;;;2.25;;
59239;SDS011;45010;53.640;10.578;2022-08-04T13:45:46;2.40;;;2.08;;
59239;SDS011;45010;53.640;10.578;2022-08-04T13:48:49;2.25;;;1.83;;
59239;SDS011;45010;53.640;10.578;2022-08-04T13:51:50;2.58;;;1.70;;
59239;SDS011;45010;53.640;10.578;2022-08-04T13:54:54;2.10;;;1.90;;
59239;SDS011;45010;53.640;10.578;2022-08-04T13:57:56;4.45;;;1.98;;
59239;SDS011;45010;53.640;10.578;2022-08-04T14:01:01;3.03;;;2.28;;
59239;SDS011;45010;53.640;10.578;2022-08-04T14:07:16;2.67;;;1.65;;
59239;SDS011;45010;53.640;10.578;2022-08-04T14:10:17;2.05;;;1.83;;
59239;SDS011;45010;53.640;10.578;2022-08-04T14:13:26;4.88;;;1.90;;
59239;SDS011;45010;53.640;10.578;2022-08-04T14:16:28;3.15;;;1.98;;
59239;SDS011;45010;53.640;10.578;2022-08-04T14:19:30;4.47;;;2.10;;
59239;SDS011;45010;53.640;10.578;2022-08-04T14:22:49;2.40;;;1.77;;
59239;SDS011;45010;53.640;10.578;2022-08-04T14:25:50;3.85;;;1.70;;
59239;SDS011;45010;53.640;10.578;2022-08-04T14:28:51;3.97;;;1.80;;
59239;SDS011;45010;53.640;10.578;2022-08-04T14:31:58;1.95;;;1.75;;
59239;SDS011;45010;53.640;10.578;2022-08-04T14:35:00;2.50;;;1.67;;
59239;SDS011;45010;53.640;10.578;2022-08-04T14:38:10;4.15;;;2.08;;
59239;SDS011;45010;53.640;10.578;2022-08-04T14:41:11;5.32;;;2.00;;
59239;SDS011;45010;53.640;10.578;2022-08-04T14:44:12;3.25;;;2.10;;
59239;SDS011;45010;53.640;10.578;2022-08-04T14:47:13;3.95;;;1.88;;
59239;SDS011;45010;53.640;10.578;2022-08-04T14:50:13;2.58;;;1.90;;
59239;SDS011;45010;53.640;10.578;2022-08-04T14:53:18;3.15;;;2.10;;
59239;SDS011;45010;53.640;10.578;2022-08-04T14:56:20;3.35;;;1.80;;
59239;SDS011;45010;53.640;10.578;2022-08-04T14:59:20;1.98;;;1.80;;
59239;SDS011;45010;53.640;10.578;2022-08-04T15:02:21;2.25;;;2.05;;
59239;SDS011;45010;53.640;10.578;2022-08-04T15:05:22;3.95;;;2.00;;
59239;SDS011;45010;53.640;10.578;2022-08-04T15:08:23;1.90;;;1.67;;
59239;SDS011;45010;53.640;10.578;2022-08-04T15:11:24;3.17;;;1.70;;
59239;SDS011;45010;53.640;10.578;2022-08-04T15:14:24;4.18;;;2.20;;
59239;SDS011;45010;53.640;10.578;2022-08-04T15:17:25;3.20;;;1.85;;
59239;SDS011;45010;53.640;10.578;2022-08-04T15:20:26;2.95;;;1.83;;
59239;SDS011;45010;53.640;10.578;2022-08-04T15:23:27;3.40;;;2.17;;
59239;SDS011;45010;53.640;10.578;2022-08-04T15:29:50;2.58;;;2.03;;
59239;SDS011;45010;53.640;10.578;2022-08-04T15:32:55;3.03;;;1.95;;
59239;SDS011;45010;53.640;10.578;2022-08-04T15:36:15;6.00;;;2.08;;
59239;SDS011;45010;53.640;10.578;2022-08-04T15:46:24;7.07;;;2.45;;
59239;SDS011;45010;53.640;10.578;2022-08-04T15:49:39;10.07;;;2.50;;
59239;SDS011;45010;53.640;10.578;2022-08-04T15:56:42;4.63;;;1.90;;
59239;SDS011;45010;53.640;10.578;2022-08-04T16:02:57;4.55;;;2.10;;
59239;SDS011;45010;53.640;10.578;2022-08-04T16:05:58;5.05;;;2.05;;
59239;SDS011;45010;53.640;10.578;2022-08-04T16:09:07;3.17;;;2.53;;
59239;SDS011;45010;53.640;10.578;2022-08-04T16:12:07;4.55;;;2.10;;
59239;SDS011;45010;53.640;10.578;2022-08-04T16:18:43;5.10;;;2.22;;
59239;SDS011;45010;53.640;10.578;2022-08-04T16:21:45;3.50;;;2.13;;
59239;SDS011;45010;53.640;10.578;2022-08-04T16:24:50;3.45;;;2.05;;
59239;SDS011;45010;53.640;10.578;2022-08-04T16:27:51;3.10;;;2.65;;
59239;SDS011;45010;53.640;10.578;2022-08-04T16:30:58;6.38;;;1.95;;
59239;SDS011;45010;53.640;10.578;2022-08-04T16:33:59;10.35;;;4.63;;
59239;SDS011;45010;53.640;10.578;2022-08-04T16:37:07;9.30;;;4.30;;
59239;SDS011;45010;53.640;10.578;2022-08-04T16:40:22;11.43;;;4.90;;
59239;SDS011;45010;53.640;10.578;2022-08-04T16:43:30;8.30;;;4.70;;
59239;SDS011;45010;53.640;10.578;2022-08-04T16:46:40;7.75;;;4.13;;
59239;SDS011;45010;53.640;10.578;2022-08-04T16:49:41;7.68;;;4.28;;
59239;SDS011;45010;53.640;10.578;2022-08-04T16:52:49;12.40;;;4.97;;
59239;SDS011;45010;53.640;10.578;2022-08-04T16:55:54;10.48;;;4.25;;
59239;SDS011;45010;53.640;10.578;2022-08-04T16:58:55;13.18;;;4.65;;
59239;SDS011;45010;53.640;10.578;2022-08-04T17:01:55;8.98;;;4.05;;
59239;SDS011;45010;53.640;10.578;2022-08-04T17:04:56;10.02;;;3.72;;
59239;SDS011;45010;53.640;10.578;2022-08-04T17:07:56;8.98;;;4.00;;
59239;SDS011;45010;53.640;10.578;2022-08-04T17:10:58;9.43;;;3.58;;
59239;SDS011;45010;53.640;10.578;2022-08-04T17:13:59;7.78;;;3.90;;
59239;SDS011;45010;53.640;10.578;2022-08-04T17:17:00;10.80;;;3.47;;
59239;SDS011;45010;53.640;10.578;2022-08-04T17:20:01;7.30;;;3.58;;
59239;SDS011;45010;53.640;10.578;2022-08-04T17:23:20;8.20;;;3.22;;
59239;SDS011;45010;53.640;10.578;2022-08-04T17:26:38;7.72;;;3.40;;
59239;SDS011;45010;53.640;10.578;2022-08-04T17:29:39;7.38;;;3.10;;
59239;SDS011;45010;53.640;10.578;2022-08-04T17:32:39;8.80;;;3.28;;
59239;SDS011;45010;53.640;10.578;2022-08-04T17:35:43;7.60;;;3.00;;
59239;SDS011;45010;53.640;10.578;2022-08-04T17:38:45;8.73;;;3.08;;
59239;SDS011;45010;53.640;10.578;2022-08-04T17:41:53;10.95;;;3.17;;
59239;SDS011;45010;53.640;10.578;2022-08-04T17:45:10;4.78;;;3.15;;
59239;SDS011;45010;53.640;10.578;2022-08-04T17:48:19;11.25;;;3.72;;
59239;SDS011;45010;53.640;10.578;2022-08-04T17:51:20;6.80;;;2.83;;
59239;SDS011;45010;53.640;10.578;2022-08-04T17:57:27;5.40;;;2.90;;
59239;SDS011;45010;53.640;10.578;2022-08-04T18:00:33;7.57;;;3.03;;
59239;SDS011;45010;53.640;10.578;2022-08-04T18:03:34;6.72;;;3.13;;
59239;SDS011;45010;53.640;10.578;2022-08-04T18:06:34;7.07;;;2.50;;
59239;SDS011;45010;53.640;10.578;2022-08-04T18:12:37;7.85;;;2.80;;
59239;SDS011;45010;53.640;10.578;2022-08-04T18:15:38;6.88;;;3.00;;
59239;SDS011;45010;53.640;10.578;2022-08-04T18:18:38;5.63;;;2.78;;
59239;SDS011;45010;53.640;10.578;2022-08-04T18:21:39;6.82;;;2.58;;
59239;SDS011;45010;53.640;10.578;2022-08-04T18:24:39;8.48;;;2.90;;
59239;SDS011;45010;53.640;10.578;2022-08-04T18:27:46;6.88;;;2.97;;
59239;SDS011;45010;53.640;10.578;2022-08-04T18:30:48;7.15;;;2.55;;
59239;SDS011;45010;53.640;10.578;2022-08-04T18:33:48;6.13;;;3.05;;
59239;SDS011;45010;53.640;10.578;2022-08-04T18:36:49;7.80;;;3.30;;
59239;SDS011;45010;53.640;10.578;2022-08-04T18:39:49;10.40;;;3.30;;
59239;SDS011;45010;53.640;10.578;2022-08-04T18:42:49;6.07;;;2.90;;
59239;SDS011;45010;53.640;10.578;2022-08-04T18:45:50;7.95;;;3.08;;
59239;SDS011;45010;53.640;10.578;2022-08-04T18:48:50;4.80;;;2.75;;
59239;SDS011;45010;53.640;10.578;2022-08-04T18:51:51;6.68;;;2.78;;
59239;SDS011;45010;53.640;10.578;2022-08-04T18:54:52;7.88;;;2.97;;
59239;SDS011;45010;53.640;10.578;2022-08-04T18:57:53;10.05;;;3.05;;
59239;SDS011;45010;53.640;10.578;2022-08-04T19:00:54;7.18;;;3.00;;
59239;SDS011;45010;53.640;10.578;2022-08-04T19:03:54;7.50;;;2.95;;
59239;SDS011;45010;53.640;10.578;2022-08-04T19:06:55;4.88;;;2.80;;
59239;SDS011;45010;53.640;10.578;2022-08-04T19:09:57;6.85;;;3.58;;
59239;SDS011;45010;53.640;10.578;2022-08-04T19:12:57;9.82;;;2.75;;
59239;SDS011;45010;53.640;10.578;2022-08-04T19:15:58;6.40;;;2.65;;
59239;SDS011;45010;53.640;10.578;2022-08-04T19:18:59;8.98;;;2.95;;
59239;SDS011;45010;53.640;10.578;2022-08-04T19:22:00;9.20;;;3.85;;
59239;SDS011;45010;53.640;10.578;2022-08-04T19:25:00;7.20;;;3.03;;
59239;SDS011;45010;53.640;10.578;2022-08-04T19:28:01;6.57;;;2.92;;
59239;SDS011;45010;53.640;10.578;2022-08-04T19:31:05;4.72;;;2.30;;
59239;SDS011;45010;53.640;10.578;2022-08-04T19:34:06;13.55;;;2.97;;
59239;SDS011;45010;53.640;10.578;2022-08-04T19:37:07;7.35;;;2.67;;
59239;SDS011;45010;53.640;10.578;2022-08-04T19:40:07;7.38;;;3.13;;
59239;SDS011;45010;53.640;10.578;2022-08-04T19:43:09;6.25;;;2.95;;
59239;SDS011;45010;53.640;10.578;2022-08-04T19:46:09;8.27;;;3.08;;
59239;SDS011;45010;53.640;10.578;2022-08-04T19:49:09;8.77;;;2.95;;
59239;SDS011;45010;53.640;10.578;2022-08-04T19:52:10;8.88;;;2.83;;
59239;SDS011;45010;53.640;10.578;2022-08-04T19:55:10;5.78;;;2.72;;
59239;SDS011;45010;53.640;10.578;2022-08-04T19:58:11;7.65;;;3.35;;
59239;SDS011;45010;53.640;10.578;2022-08-04T20:01:11;7.45;;;2.80;;
59239;SDS011;45010;53.640;10.578;2022-08-04T20:04:13;4.07;;;2.33;;
59239;SDS011;45010;53.640;10.578;2022-08-04T20:07:13;5.50;;;2.25;;
59239;SDS011;45010;53.640;10.578;2022-08-04T20:10:15;7.97;;;2.78;;
59239;SDS011;45010;53.640;10.578;2022-08-04T20:13:16;5.55;;;2.80;;
59239;SDS011;45010;53.640;10.578;2022-08-04T20:16:16;8.05;;;2.78;;
59239;SDS011;45010;53.640;10.578;2022-08-04T20:19:17;3.72;;;2.42;;
59239;SDS011;45010;53.640;10.578;2022-08-04T20:22:17;12.05;;;2.85;;
59239;SDS011;45010;53.640;10.578;2022-08-04T20:25:20;3.95;;;2.97;;
59239;SDS011;45010;53.640;10.578;2022-08-04T20:28:21;5.78;;;3.25;;
59239;SDS011;45010;53.640;10.578;2022-08-04T20:31:22;7.65;;;3.03;;
59239;SDS011;45010;53.640;10.578;2022-08-04T20:34:22;6.28;;;2.85;;
59239;SDS011;45010;53.640;10.578;2022-08-04T20:37:23;4.75;;;2.40;;
59239;SDS011;45010;53.640;10.578;2022-08-04T20:40:24;5.80;;;2.78;;
59239;SDS011;45010;53.640;10.578;2022-08-04T20:43:25;5.00;;;2.83;;
59239;SDS011;45010;53.640;10.578;2022-08-04T20:46:25;10.52;;;3.08;;
59239;SDS011;45010;53.640;10.578;2022-08-04T20:49:26;6.20;;;3.22;;
59239;SDS011;45010;53.640;10.578;2022-08-04T20:52:27;4.38;;;2.70;;
59239;SDS011;45010;53.640;10.578;2022-08-04T20:55:27;5.25;;;3.25;;
59239;SDS011;45010;53.640;10.578;2022-08-04T20:58:28;4.90;;;2.75;;
59239;SDS011;45010;53.640;10.578;2022-08-04T21:01:28;4.60;;;2.72;;
59239;SDS011;45010;53.640;10.578;2022-08-04T21:04:29;4.97;;;2.75;;
59239;SDS011;45010;53.640;10.578;2022-08-04T21:07:37;6.95;;;2.90;;
59239;SDS011;45010;53.640;10.578;2022-08-04T21:10:37;5.57;;;2.58;;
59239;SDS011;45010;53.640;10.578;2022-08-04T21:13:38;4.75;;;2.17;;
59239;SDS011;45010;53.640;10.578;2022-08-04T21:16:39;9.45;;;2.70;;
59239;SDS011;45010;53.640;10.578;2022-08-04T21:19:39;6.18;;;2.78;;
59239;SDS011;45010;53.640;10.578;2022-08-04T21:22:40;3.70;;;2.17;;
59239;SDS011;45010;53.640;10.578;2022-08-04T21:25:40;6.15;;;2.78;;
59239;SDS011;45010;53.640;10.578;2022-08-04T21:28:40;7.18;;;3.05;;
59239;SDS011;45010;53.640;10.578;2022-08-04T21:31:41;5.40;;;2.83;;
59239;SDS011;45010;53.640;10.578;2022-08-04T21:34:43;7.32;;;3.85;;
59239;SDS011;45010;53.640;10.578;2022-08-04T21:37:43;6.68;;;3.10;;
59239;SDS011;45010;53.640;10.578;2022-08-04T21:40:49;6.45;;;3.22;;
59239;SDS011;45010;53.640;10.578;2022-08-04T21:43:53;5.53;;;2.63;;
59239;SDS011;45010;53.640;10.578;2022-08-04T21:46:54;5.63;;;2.50;;
59239;SDS011;45010;53.640;10.578;2022-08-04T21:49:55;4.93;;;2.67;;
59239;SDS011;45010;53.640;10.578;2022-08-04T21:52:55;4.95;;;2.63;;
59239;SDS011;45010;53.640;10.578;2022-08-04T21:55:55;6.55;;;2.53;;
59239;SDS011;45010;53.640;10.578;2022-08-04T21:58:56;5.68;;;2.47;;
59239;SDS011;45010;53.640;10.578;2022-08-04T22:01:58;7.30;;;2.47;;
59239;SDS011;45010;53.640;10.578;2022-08-04T22:04:59;6.22;;;2.50;;
59239;SDS011;45010;53.640;10.578;2022-08-04T22:08:00;7.25;;;3.03;;
59239;SDS011;45010;53.640;10.578;2022-08-04T22:11:00;4.95;;;2.83;;
59239;SDS011;45010;53.640;10.578;2022-08-04T22:14:07;4.22;;;2.38;;
59239;SDS011;45010;53.640;10.578;2022-08-04T22:17:08;4.72;;;2.88;;
59239;SDS011;45010;53.640;10.578;2022-08-04T22:20:09;6.95;;;2.53;;
59239;SDS011;45010;53.640;10.578;2022-08-04T22:23:11;5.88;;;2.33;;